sensor_id;sensor_type;location;lat;lon;timestamp;P1;durP1;ratioP1;P2;durP2;ratioP2
9675;SDS011;4876;42.656;23.292;2024-01-07T00:01:23;22.60;;;8.90;;
9675;SDS011;4876;42.656;23.292;2024-01-07T00:03:49;22.65;;;8.80;;
9675;SDS011;4876;42.656;23.292;2024-01-07T00:06:15;21.40;;;9.57;;
9675;SDS011;4876;42.656;23.292;2024-01-07T00:08:40;16.92;;;8.55;;
9675;SDS011;4876;42.656;23.292;2024-01-07T00:11:06;19.20;;;9.00;;
9675;SDS011;4876;42.656;23.292;2024-01-07T00:13:31;19.48;;;9.88;;
9675;SDS011;4876;42.656;23.292;2024-01-07T00:15:57;21.23;;;9.68;;
9675;SDS011;4876;42.656;23.292;2024-01-07T00:18:22;22.83;;;9.60;;
9675;SDS011;4876;42.656;23.292;2024-01-07T00:20:49;20.17;;;10.32;;
9675;SDS011;4876;42.656;23.292;2024-01-07T00:23:15;24.85;;;12.05;;
9675;SDS011;4876;42.656;23.292;2024-01-07T00:25:40;27.88;;;13.05;;
9675;SDS011;4876;42.656;23.292;2024-01-07T00:28:06;27.15;;;12.00;;
9675;SDS011;4876;42.656;23.292;2024-01-07T00:30:31;24.65;;;11.38;;
9675;SDS011;4876;42.656;23.292;2024-01-07T00:32:57;16.25;;;8.77;;
9675;SDS011;4876;42.656;23.292;2024-01-07T00:35:22;22.20;;;9.27;;
9675;SDS011;4876;42.656;23.292;2024-01-07T00:37:48;21.70;;;9.57;;
9675;SDS011;4876;42.656;23.292;2024-01-07T00:40:13;20.35;;;10.48;;
9675;SDS011;4876;42.656;23.292;2024-01-07T00:42:39;18.65;;;9.95;;
9675;SDS011;4876;42.656;23.292;2024-01-07T00:45:05;24.67;;;9.95;;
9675;SDS011;4876;42.656;23.292;2024-01-07T00:47:31;19.75;;;10.02;;
9675;SDS011;4876;42.656;23.292;2024-01-07T00:49:56;21.17;;;8.27;;
9675;SDS011;4876;42.656;23.292;2024-01-07T00:52:22;18.98;;;9.50;;
9675;SDS011;4876;42.656;23.292;2024-01-07T00:54:48;17.83;;;8.48;;
9675;SDS011;4876;42.656;23.292;2024-01-07T00:57:14;20.27;;;9.38;;
9675;SDS011;4876;42.656;23.292;2024-01-07T00:59:39;17.90;;;8.73;;
9675;SDS011;4876;42.656;23.292;2024-01-07T01:02:05;16.27;;;8.80;;
9675;SDS011;4876;42.656;23.292;2024-01-07T01:04:30;19.52;;;9.30;;
9675;SDS011;4876;42.656;23.292;2024-01-07T01:06:56;18.75;;;9.32;;
9675;SDS011;4876;42.656;23.292;2024-01-07T01:09:21;23.17;;;10.38;;
9675;SDS011;4876;42.656;23.292;2024-01-07T01:11:47;21.17;;;10.32;;
9675;SDS011;4876;42.656;23.292;2024-01-07T01:14:14;23.40;;;10.10;;
9675;SDS011;4876;42.656;23.292;2024-01-07T01:16:40;17.42;;;9.73;;
9675;SDS011;4876;42.656;23.292;2024-01-07T01:19:06;19.20;;;9.43;;
9675;SDS011;4876;42.656;23.292;2024-01-07T01:21:31;18.42;;;9.43;;
9675;SDS011;4876;42.656;23.292;2024-01-07T01:23:57;20.08;;;9.90;;
9675;SDS011;4876;42.656;23.292;2024-01-07T01:26:23;19.40;;;10.00;;
9675;SDS011;4876;42.656;23.292;2024-01-07T01:28:48;21.42;;;10.60;;
9675;SDS011;4876;42.656;23.292;2024-01-07T01:31:14;22.38;;;10.30;;
9675;SDS011;4876;42.656;23.292;2024-01-07T01:33:40;19.42;;;10.57;;
9675;SDS011;4876;42.656;23.292;2024-01-07T01:36:06;21.02;;;10.45;;
9675;SDS011;4876;42.656;23.292;2024-01-07T01:38:32;22.80;;;10.57;;
9675;SDS011;4876;42.656;23.292;2024-01-07T01:40:57;25.55;;;11.35;;
9675;SDS011;4876;42.656;23.292;2024-01-07T01:43:23;22.88;;;10.48;;
9675;SDS011;4876;42.656;23.292;2024-01-07T01:45:53;22.15;;;9.45;;
9675;SDS011;4876;42.656;23.292;2024-01-07T01:48:20;16.77;;;9.60;;
9675;SDS011;4876;42.656;23.292;2024-01-07T01:50:46;23.73;;;10.68;;
9675;SDS011;4876;42.656;23.292;2024-01-07T01:53:12;23.80;;;10.60;;
9675;SDS011;4876;42.656;23.292;2024-01-07T01:55:38;21.67;;;10.70;;
9675;SDS011;4876;42.656;23.292;2024-01-07T01:58:04;19.02;;;10.20;;
9675;SDS011;4876;42.656;23.292;2024-01-07T02:00:32;19.77;;;11.02;;
9675;SDS011;4876;42.656;23.292;2024-01-07T02:02:58;18.08;;;10.15;;
9675;SDS011;4876;42.656;23.292;2024-01-07T02:05:25;20.63;;;9.93;;
9675;SDS011;4876;42.656;23.292;2024-01-07T02:07:52;19.02;;;10.52;;
9675;SDS011;4876;42.656;23.292;2024-01-07T02:10:18;21.50;;;10.10;;
9675;SDS011;4876;42.656;23.292;2024-01-07T02:12:43;21.85;;;10.23;;
9675;SDS011;4876;42.656;23.292;2024-01-07T02:15:09;20.42;;;10.25;;
9675;SDS011;4876;42.656;23.292;2024-01-07T02:17:34;26.83;;;11.25;;
9675;SDS011;4876;42.656;23.292;2024-01-07T02:20:00;23.40;;;10.77;;
9675;SDS011;4876;42.656;23.292;2024-01-07T02:22:26;18.52;;;9.55;;
9675;SDS011;4876;42.656;23.292;2024-01-07T02:24:51;19.17;;;10.10;;
9675;SDS011;4876;42.656;23.292;2024-01-07T02:27:17;22.75;;;11.82;;
9675;SDS011;4876;42.656;23.292;2024-01-07T02:29:42;22.27;;;9.93;;
9675;SDS011;4876;42.656;23.292;2024-01-07T02:32:08;24.58;;;10.82;;
9675;SDS011;4876;42.656;23.292;2024-01-07T02:34:33;20.90;;;10.32;;
9675;SDS011;4876;42.656;23.292;2024-01-07T02:36:59;21.70;;;11.43;;
9675;SDS011;4876;42.656;23.292;2024-01-07T02:39:24;23.35;;;11.25;;
9675;SDS011;4876;42.656;23.292;2024-01-07T02:41:50;24.65;;;12.00;;
9675;SDS011;4876;42.656;23.292;2024-01-07T02:44:15;22.63;;;12.00;;
9675;SDS011;4876;42.656;23.292;2024-01-07T02:46:41;20.38;;;11.82;;
9675;SDS011;4876;42.656;23.292;2024-01-07T02:49:06;26.48;;;12.18;;
9675;SDS011;4876;42.656;23.292;2024-01-07T02:51:32;19.42;;;11.05;;
9675;SDS011;4876;42.656;23.292;2024-01-07T02:53:57;22.27;;;11.45;;
9675;SDS011;4876;42.656;23.292;2024-01-07T02:56:23;28.80;;;10.88;;
9675;SDS011;4876;42.656;23.292;2024-01-07T02:58:48;20.52;;;10.73;;
9675;SDS011;4876;42.656;23.292;2024-01-07T03:01:14;21.05;;;11.30;;
9675;SDS011;4876;42.656;23.292;2024-01-07T03:03:39;22.58;;;11.15;;
9675;SDS011;4876;42.656;23.292;2024-01-07T03:06:05;22.85;;;10.95;;
9675;SDS011;4876;42.656;23.292;2024-01-07T03:08:31;19.92;;;11.02;;
9675;SDS011;4876;42.656;23.292;2024-01-07T03:10:56;21.50;;;10.27;;
9675;SDS011;4876;42.656;23.292;2024-01-07T03:13:22;18.05;;;9.18;;
9675;SDS011;4876;42.656;23.292;2024-01-07T03:15:47;19.40;;;8.95;;
9675;SDS011;4876;42.656;23.292;2024-01-07T03:18:13;17.30;;;9.23;;
9675;SDS011;4876;42.656;23.292;2024-01-07T03:20:38;18.83;;;7.80;;
9675;SDS011;4876;42.656;23.292;2024-01-07T03:23:04;9.98;;;5.68;;
9675;SDS011;4876;42.656;23.292;2024-01-07T03:25:29;11.45;;;5.68;;
9675;SDS011;4876;42.656;23.292;2024-01-07T03:27:55;13.15;;;5.93;;
9675;SDS011;4876;42.656;23.292;2024-01-07T03:30:20;13.52;;;6.63;;
9675;SDS011;4876;42.656;23.292;2024-01-07T03:32:46;13.27;;;7.20;;
9675;SDS011;4876;42.656;23.292;2024-01-07T03:35:11;15.18;;;7.10;;
9675;SDS011;4876;42.656;23.292;2024-01-07T03:37:37;12.02;;;6.25;;
9675;SDS011;4876;42.656;23.292;2024-01-07T03:40:03;12.38;;;6.20;;
9675;SDS011;4876;42.656;23.292;2024-01-07T03:42:28;12.23;;;5.93;;
9675;SDS011;4876;42.656;23.292;2024-01-07T03:44:54;12.23;;;5.20;;
9675;SDS011;4876;42.656;23.292;2024-01-07T03:47:19;9.30;;;4.88;;
9675;SDS011;4876;42.656;23.292;2024-01-07T03:49:45;11.52;;;5.22;;
9675;SDS011;4876;42.656;23.292;2024-01-07T03:52:10;13.30;;;6.15;;
9675;SDS011;4876;42.656;23.292;2024-01-07T03:54:36;10.25;;;5.55;;
9675;SDS011;4876;42.656;23.292;2024-01-07T03:57:01;10.63;;;5.50;;
9675;SDS011;4876;42.656;23.292;2024-01-07T03:59:27;9.98;;;5.78;;
9675;SDS011;4876;42.656;23.292;2024-01-07T04:01:56;10.10;;;5.47;;
9675;SDS011;4876;42.656;23.292;2024-01-07T04:04:22;8.90;;;5.30;;
9675;SDS011;4876;42.656;23.292;2024-01-07T04:06:48;13.45;;;5.20;;
9675;SDS011;4876;42.656;23.292;2024-01-07T04:09:13;11.68;;;5.10;;
9675;SDS011;4876;42.656;23.292;2024-01-07T04:11:40;10.88;;;5.30;;
9675;SDS011;4876;42.656;23.292;2024-01-07T04:14:06;12.23;;;5.20;;
9675;SDS011;4876;42.656;23.292;2024-01-07T04:16:31;8.52;;;5.07;;
9675;SDS011;4876;42.656;23.292;2024-01-07T04:18:57;10.02;;;5.70;;
9675;SDS011;4876;42.656;23.292;2024-01-07T04:21:22;11.10;;;5.38;;
9675;SDS011;4876;42.656;23.292;2024-01-07T04:23:48;11.93;;;6.13;;
9675;SDS011;4876;42.656;23.292;2024-01-07T04:26:13;15.80;;;6.95;;
9675;SDS011;4876;42.656;23.292;2024-01-07T04:28:42;14.00;;;6.55;;
9675;SDS011;4876;42.656;23.292;2024-01-07T04:31:09;11.93;;;6.10;;
9675;SDS011;4876;42.656;23.292;2024-01-07T04:33:35;13.35;;;6.32;;
9675;SDS011;4876;42.656;23.292;2024-01-07T04:36:00;10.13;;;5.40;;
9675;SDS011;4876;42.656;23.292;2024-01-07T04:38:26;11.43;;;5.38;;
9675;SDS011;4876;42.656;23.292;2024-01-07T04:40:52;13.95;;;6.35;;
9675;SDS011;4876;42.656;23.292;2024-01-07T04:43:18;15.63;;;6.05;;
9675;SDS011;4876;42.656;23.292;2024-01-07T04:45:44;12.82;;;6.07;;
9675;SDS011;4876;42.656;23.292;2024-01-07T04:48:10;13.32;;;5.97;;
9675;SDS011;4876;42.656;23.292;2024-01-07T04:50:36;10.25;;;6.32;;
9675;SDS011;4876;42.656;23.292;2024-01-07T04:53:02;13.77;;;7.28;;
9675;SDS011;4876;42.656;23.292;2024-01-07T04:55:27;8.00;;;4.78;;
9675;SDS011;4876;42.656;23.292;2024-01-07T04:57:54;10.75;;;5.80;;
9675;SDS011;4876;42.656;23.292;2024-01-07T05:00:20;8.88;;;5.03;;
9675;SDS011;4876;42.656;23.292;2024-01-07T05:02:46;16.02;;;6.65;;
9675;SDS011;4876;42.656;23.292;2024-01-07T05:05:11;13.95;;;6.40;;
9675;SDS011;4876;42.656;23.292;2024-01-07T05:07:37;12.32;;;5.53;;
9675;SDS011;4876;42.656;23.292;2024-01-07T05:10:03;9.77;;;5.47;;
9675;SDS011;4876;42.656;23.292;2024-01-07T05:12:29;10.93;;;4.78;;
9675;SDS011;4876;42.656;23.292;2024-01-07T05:14:54;8.68;;;4.60;;
9675;SDS011;4876;42.656;23.292;2024-01-07T05:17:20;10.25;;;5.68;;
9675;SDS011;4876;42.656;23.292;2024-01-07T05:19:45;11.40;;;5.43;;
9675;SDS011;4876;42.656;23.292;2024-01-07T05:22:11;11.70;;;5.72;;
9675;SDS011;4876;42.656;23.292;2024-01-07T05:24:37;12.10;;;5.90;;
9675;SDS011;4876;42.656;23.292;2024-01-07T05:27:05;9.88;;;5.65;;
9675;SDS011;4876;42.656;23.292;2024-01-07T05:29:31;12.55;;;5.43;;
9675;SDS011;4876;42.656;23.292;2024-01-07T05:32:00;15.93;;;6.78;;
9675;SDS011;4876;42.656;23.292;2024-01-07T05:34:29;10.80;;;6.38;;
9675;SDS011;4876;42.656;23.292;2024-01-07T05:36:55;10.63;;;5.15;;
9675;SDS011;4876;42.656;23.292;2024-01-07T05:39:20;11.80;;;5.90;;
9675;SDS011;4876;42.656;23.292;2024-01-07T05:41:46;8.20;;;5.43;;
9675;SDS011;4876;42.656;23.292;2024-01-07T05:44:11;9.77;;;5.45;;
9675;SDS011;4876;42.656;23.292;2024-01-07T05:46:40;9.38;;;6.10;;
9675;SDS011;4876;42.656;23.292;2024-01-07T05:49:06;12.80;;;7.13;;
9675;SDS011;4876;42.656;23.292;2024-01-07T05:51:33;10.13;;;5.53;;
9675;SDS011;4876;42.656;23.292;2024-01-07T05:53:58;10.98;;;5.53;;
9675;SDS011;4876;42.656;23.292;2024-01-07T05:56:24;9.10;;;5.45;;
9675;SDS011;4876;42.656;23.292;2024-01-07T05:58:49;12.02;;;5.95;;
9675;SDS011;4876;42.656;23.292;2024-01-07T06:01:18;8.95;;;5.53;;
9675;SDS011;4876;42.656;23.292;2024-01-07T06:03:45;10.48;;;5.95;;
9675;SDS011;4876;42.656;23.292;2024-01-07T06:06:13;12.77;;;5.88;;
9675;SDS011;4876;42.656;23.292;2024-01-07T06:08:39;14.77;;;7.78;;
9675;SDS011;4876;42.656;23.292;2024-01-07T06:11:06;10.20;;;5.95;;
9675;SDS011;4876;42.656;23.292;2024-01-07T06:13:32;11.15;;;6.18;;
9675;SDS011;4876;42.656;23.292;2024-01-07T06:15:57;10.60;;;5.93;;
9675;SDS011;4876;42.656;23.292;2024-01-07T06:18:23;9.57;;;5.72;;
9675;SDS011;4876;42.656;23.292;2024-01-07T06:20:48;10.82;;;4.70;;
9675;SDS011;4876;42.656;23.292;2024-01-07T06:23:14;9.27;;;5.90;;
9675;SDS011;4876;42.656;23.292;2024-01-07T06:25:40;12.98;;;7.65;;
9675;SDS011;4876;42.656;23.292;2024-01-07T06:28:05;12.07;;;6.90;;
9675;SDS011;4876;42.656;23.292;2024-01-07T06:30:31;12.63;;;6.57;;
9675;SDS011;4876;42.656;23.292;2024-01-07T06:32:57;13.63;;;7.43;;
9675;SDS011;4876;42.656;23.292;2024-01-07T06:35:22;15.48;;;7.22;;
9675;SDS011;4876;42.656;23.292;2024-01-07T06:37:48;10.63;;;6.72;;
9675;SDS011;4876;42.656;23.292;2024-01-07T06:40:14;13.25;;;7.10;;
9675;SDS011;4876;42.656;23.292;2024-01-07T06:42:39;14.80;;;7.20;;
9675;SDS011;4876;42.656;23.292;2024-01-07T06:45:06;13.48;;;8.05;;
9675;SDS011;4876;42.656;23.292;2024-01-07T06:47:35;13.48;;;8.15;;
9675;SDS011;4876;42.656;23.292;2024-01-07T06:50:00;16.40;;;7.90;;
9675;SDS011;4876;42.656;23.292;2024-01-07T06:52:26;13.35;;;6.63;;
9675;SDS011;4876;42.656;23.292;2024-01-07T06:54:51;14.05;;;7.18;;
9675;SDS011;4876;42.656;23.292;2024-01-07T06:57:19;13.15;;;7.20;;
9675;SDS011;4876;42.656;23.292;2024-01-07T06:59:45;14.57;;;7.05;;
9675;SDS011;4876;42.656;23.292;2024-01-07T07:02:11;13.35;;;7.07;;
9675;SDS011;4876;42.656;23.292;2024-01-07T07:04:37;11.93;;;7.07;;
9675;SDS011;4876;42.656;23.292;2024-01-07T07:07:02;13.43;;;7.38;;
9675;SDS011;4876;42.656;23.292;2024-01-07T07:09:34;14.25;;;6.43;;
9675;SDS011;4876;42.656;23.292;2024-01-07T07:12:00;15.45;;;7.38;;
9675;SDS011;4876;42.656;23.292;2024-01-07T07:14:25;13.18;;;7.35;;
9675;SDS011;4876;42.656;23.292;2024-01-07T07:16:51;14.30;;;7.28;;
9675;SDS011;4876;42.656;23.292;2024-01-07T07:19:16;12.60;;;6.53;;
9675;SDS011;4876;42.656;23.292;2024-01-07T07:21:43;11.80;;;6.15;;
9675;SDS011;4876;42.656;23.292;2024-01-07T07:24:09;11.95;;;5.72;;
9675;SDS011;4876;42.656;23.292;2024-01-07T07:26:35;13.35;;;6.53;;
9675;SDS011;4876;42.656;23.292;2024-01-07T07:29:01;12.27;;;6.57;;
9675;SDS011;4876;42.656;23.292;2024-01-07T07:31:27;16.65;;;7.70;;
9675;SDS011;4876;42.656;23.292;2024-01-07T07:33:52;16.05;;;7.53;;
9675;SDS011;4876;42.656;23.292;2024-01-07T07:36:18;13.95;;;6.63;;
9675;SDS011;4876;42.656;23.292;2024-01-07T07:38:43;14.45;;;7.65;;
9675;SDS011;4876;42.656;23.292;2024-01-07T07:41:09;13.90;;;7.97;;
9675;SDS011;4876;42.656;23.292;2024-01-07T07:43:34;16.48;;;8.70;;
9675;SDS011;4876;42.656;23.292;2024-01-07T07:46:00;14.20;;;7.53;;
9675;SDS011;4876;42.656;23.292;2024-01-07T07:48:28;12.73;;;7.15;;
9675;SDS011;4876;42.656;23.292;2024-01-07T07:50:54;16.50;;;7.60;;
9675;SDS011;4876;42.656;23.292;2024-01-07T07:53:19;14.52;;;7.25;;
9675;SDS011;4876;42.656;23.292;2024-01-07T07:55:45;14.48;;;7.60;;
9675;SDS011;4876;42.656;23.292;2024-01-07T07:58:10;14.48;;;6.88;;
9675;SDS011;4876;42.656;23.292;2024-01-07T08:00:36;9.55;;;4.75;;
9675;SDS011;4876;42.656;23.292;2024-01-07T08:03:01;9.90;;;5.32;;
9675;SDS011;4876;42.656;23.292;2024-01-07T08:05:28;12.90;;;5.55;;
9675;SDS011;4876;42.656;23.292;2024-01-07T08:07:53;10.20;;;5.65;;
9675;SDS011;4876;42.656;23.292;2024-01-07T08:10:20;15.20;;;8.30;;
9675;SDS011;4876;42.656;23.292;2024-01-07T08:12:47;16.95;;;8.32;;
9675;SDS011;4876;42.656;23.292;2024-01-07T08:15:14;13.23;;;8.18;;
9675;SDS011;4876;42.656;23.292;2024-01-07T08:17:40;15.57;;;8.95;;
9675;SDS011;4876;42.656;23.292;2024-01-07T08:20:05;12.50;;;7.18;;
9675;SDS011;4876;42.656;23.292;2024-01-07T08:22:31;12.05;;;6.10;;
9675;SDS011;4876;42.656;23.292;2024-01-07T08:24:57;8.65;;;4.93;;
9675;SDS011;4876;42.656;23.292;2024-01-07T08:27:22;9.00;;;4.70;;
9675;SDS011;4876;42.656;23.292;2024-01-07T08:29:48;10.48;;;5.55;;
9675;SDS011;4876;42.656;23.292;2024-01-07T08:32:13;11.35;;;5.47;;
9675;SDS011;4876;42.656;23.292;2024-01-07T08:34:39;10.50;;;6.00;;
9675;SDS011;4876;42.656;23.292;2024-01-07T08:37:05;11.13;;;5.40;;
9675;SDS011;4876;42.656;23.292;2024-01-07T08:39:30;9.98;;;5.28;;
9675;SDS011;4876;42.656;23.292;2024-01-07T08:41:56;8.60;;;5.07;;
9675;SDS011;4876;42.656;23.292;2024-01-07T08:44:21;10.40;;;4.50;;
9675;SDS011;4876;42.656;23.292;2024-01-07T08:46:47;7.60;;;4.45;;
9675;SDS011;4876;42.656;23.292;2024-01-07T08:49:12;9.90;;;4.85;;
9675;SDS011;4876;42.656;23.292;2024-01-07T08:51:39;9.35;;;5.30;;
9675;SDS011;4876;42.656;23.292;2024-01-07T08:54:04;8.75;;;5.50;;
9675;SDS011;4876;42.656;23.292;2024-01-07T08:56:30;8.52;;;4.82;;
9675;SDS011;4876;42.656;23.292;2024-01-07T08:59:04;12.27;;;5.70;;
9675;SDS011;4876;42.656;23.292;2024-01-07T09:01:30;8.63;;;5.15;;
9675;SDS011;4876;42.656;23.292;2024-01-07T09:03:55;9.85;;;5.80;;
9675;SDS011;4876;42.656;23.292;2024-01-07T09:06:21;11.35;;;6.18;;
9675;SDS011;4876;42.656;23.292;2024-01-07T09:08:46;10.48;;;5.15;;
9675;SDS011;4876;42.656;23.292;2024-01-07T09:11:12;7.93;;;4.90;;
9675;SDS011;4876;42.656;23.292;2024-01-07T09:13:38;10.98;;;5.55;;
9675;SDS011;4876;42.656;23.292;2024-01-07T09:16:04;11.02;;;6.20;;
9675;SDS011;4876;42.656;23.292;2024-01-07T09:18:29;12.90;;;6.53;;
9675;SDS011;4876;42.656;23.292;2024-01-07T09:20:56;10.80;;;5.95;;
9675;SDS011;4876;42.656;23.292;2024-01-07T09:23:21;10.50;;;5.90;;
9675;SDS011;4876;42.656;23.292;2024-01-07T09:25:47;9.57;;;6.07;;
9675;SDS011;4876;42.656;23.292;2024-01-07T09:28:14;10.65;;;6.13;;
9675;SDS011;4876;42.656;23.292;2024-01-07T09:30:40;11.63;;;6.85;;
9675;SDS011;4876;42.656;23.292;2024-01-07T09:33:05;11.82;;;5.65;;
9675;SDS011;4876;42.656;23.292;2024-01-07T09:35:31;11.23;;;5.90;;
9675;SDS011;4876;42.656;23.292;2024-01-07T09:37:56;12.00;;;5.80;;
9675;SDS011;4876;42.656;23.292;2024-01-07T09:40:22;10.93;;;5.97;;
9675;SDS011;4876;42.656;23.292;2024-01-07T09:42:47;13.02;;;6.40;;
9675;SDS011;4876;42.656;23.292;2024-01-07T09:45:13;11.77;;;6.25;;
9675;SDS011;4876;42.656;23.292;2024-01-07T09:47:42;12.77;;;6.38;;
9675;SDS011;4876;42.656;23.292;2024-01-07T09:50:10;12.18;;;6.70;;
9675;SDS011;4876;42.656;23.292;2024-01-07T09:52:42;11.02;;;6.20;;
9675;SDS011;4876;42.656;23.292;2024-01-07T09:55:09;11.63;;;6.60;;
9675;SDS011;4876;42.656;23.292;2024-01-07T09:57:42;15.68;;;6.90;;
9675;SDS011;4876;42.656;23.292;2024-01-07T10:00:09;9.27;;;6.22;;
9675;SDS011;4876;42.656;23.292;2024-01-07T10:02:37;9.93;;;5.38;;
9675;SDS011;4876;42.656;23.292;2024-01-07T10:05:02;11.52;;;5.90;;
9675;SDS011;4876;42.656;23.292;2024-01-07T10:07:28;8.52;;;5.13;;
9675;SDS011;4876;42.656;23.292;2024-01-07T10:09:54;10.68;;;5.75;;
9675;SDS011;4876;42.656;23.292;2024-01-07T10:12:24;11.32;;;6.07;;
9675;SDS011;4876;42.656;23.292;2024-01-07T10:14:49;10.95;;;5.38;;
9675;SDS011;4876;42.656;23.292;2024-01-07T10:17:15;12.80;;;6.65;;
9675;SDS011;4876;42.656;23.292;2024-01-07T10:22:12;9.98;;;5.03;;
9675;SDS011;4876;42.656;23.292;2024-01-07T10:24:40;12.40;;;5.63;;
9675;SDS011;4876;42.656;23.292;2024-01-07T10:27:07;11.80;;;5.80;;
9675;SDS011;4876;42.656;23.292;2024-01-07T10:29:33;9.93;;;5.82;;
9675;SDS011;4876;42.656;23.292;2024-01-07T10:31:59;9.98;;;5.97;;
9675;SDS011;4876;42.656;23.292;2024-01-07T10:34:29;11.00;;;6.22;;
9675;SDS011;4876;42.656;23.292;2024-01-07T10:36:56;9.75;;;5.80;;
9675;SDS011;4876;42.656;23.292;2024-01-07T10:39:24;10.75;;;5.65;;
9675;SDS011;4876;42.656;23.292;2024-01-07T10:41:50;10.00;;;5.43;;
9675;SDS011;4876;42.656;23.292;2024-01-07T10:44:19;16.42;;;6.07;;
9675;SDS011;4876;42.656;23.292;2024-01-07T10:46:45;12.25;;;6.32;;
9675;SDS011;4876;42.656;23.292;2024-01-07T10:49:23;14.70;;;6.40;;
9675;SDS011;4876;42.656;23.292;2024-01-07T10:51:56;11.85;;;6.00;;
9675;SDS011;4876;42.656;23.292;2024-01-07T10:54:29;9.52;;;5.43;;
9675;SDS011;4876;42.656;23.292;2024-01-07T10:57:07;11.32;;;6.20;;
9675;SDS011;4876;42.656;23.292;2024-01-07T10:59:40;10.30;;;5.68;;
9675;SDS011;4876;42.656;23.292;2024-01-07T11:02:07;12.20;;;6.70;;
9675;SDS011;4876;42.656;23.292;2024-01-07T11:07:30;10.77;;;5.78;;
9675;SDS011;4876;42.656;23.292;2024-01-07T11:10:08;7.32;;;4.07;;
9675;SDS011;4876;42.656;23.292;2024-01-07T11:12:38;10.43;;;4.80;;
9675;SDS011;4876;42.656;23.292;2024-01-07T11:15:04;11.95;;;6.40;;
9675;SDS011;4876;42.656;23.292;2024-01-07T11:20:01;7.63;;;4.05;;
9675;SDS011;4876;42.656;23.292;2024-01-07T11:22:27;9.77;;;4.78;;
9675;SDS011;4876;42.656;23.292;2024-01-07T11:24:54;10.02;;;4.70;;
9675;SDS011;4876;42.656;23.292;2024-01-07T11:27:24;10.20;;;4.75;;
9675;SDS011;4876;42.656;23.292;2024-01-07T11:29:57;8.38;;;4.65;;
9675;SDS011;4876;42.656;23.292;2024-01-07T11:32:29;9.43;;;5.30;;
9675;SDS011;4876;42.656;23.292;2024-01-07T11:34:55;10.85;;;5.13;;
9675;SDS011;4876;42.656;23.292;2024-01-07T11:37:24;8.55;;;5.13;;
9675;SDS011;4876;42.656;23.292;2024-01-07T11:39:55;9.45;;;4.90;;
9675;SDS011;4876;42.656;23.292;2024-01-07T11:42:22;11.55;;;5.78;;
9675;SDS011;4876;42.656;23.292;2024-01-07T11:44:48;13.63;;;5.03;;
9675;SDS011;4876;42.656;23.292;2024-01-07T11:49:44;8.95;;;4.22;;
9675;SDS011;4876;42.656;23.292;2024-01-07T11:52:11;8.82;;;4.68;;
9675;SDS011;4876;42.656;23.292;2024-01-07T11:54:37;8.73;;;4.70;;
9675;SDS011;4876;42.656;23.292;2024-01-07T11:57:22;9.60;;;4.85;;
9675;SDS011;4876;42.656;23.292;2024-01-07T11:59:51;7.60;;;4.15;;
9675;SDS011;4876;42.656;23.292;2024-01-07T12:02:16;9.70;;;5.22;;
9675;SDS011;4876;42.656;23.292;2024-01-07T12:04:42;11.35;;;4.63;;
9675;SDS011;4876;42.656;23.292;2024-01-07T12:07:08;8.75;;;4.53;;
9675;SDS011;4876;42.656;23.292;2024-01-07T12:09:35;9.07;;;4.57;;
9675;SDS011;4876;42.656;23.292;2024-01-07T12:12:01;10.43;;;4.40;;
9675;SDS011;4876;42.656;23.292;2024-01-07T12:14:28;8.27;;;4.38;;
9675;SDS011;4876;42.656;23.292;2024-01-07T12:16:54;9.68;;;4.50;;
9675;SDS011;4876;42.656;23.292;2024-01-07T12:19:20;10.18;;;4.40;;
9675;SDS011;4876;42.656;23.292;2024-01-07T12:21:47;10.20;;;4.75;;
9675;SDS011;4876;42.656;23.292;2024-01-07T12:24:13;9.75;;;4.25;;
9675;SDS011;4876;42.656;23.292;2024-01-07T12:26:38;11.00;;;4.70;;
9675;SDS011;4876;42.656;23.292;2024-01-07T12:29:04;9.40;;;4.13;;
9675;SDS011;4876;42.656;23.292;2024-01-07T12:31:34;7.88;;;4.32;;
9675;SDS011;4876;42.656;23.292;2024-01-07T12:34:00;7.75;;;3.85;;
9675;SDS011;4876;42.656;23.292;2024-01-07T12:36:29;7.43;;;3.70;;
9675;SDS011;4876;42.656;23.292;2024-01-07T12:38:54;7.95;;;4.00;;
9675;SDS011;4876;42.656;23.292;2024-01-07T12:41:22;7.97;;;4.15;;
9675;SDS011;4876;42.656;23.292;2024-01-07T12:43:48;6.88;;;3.95;;
9675;SDS011;4876;42.656;23.292;2024-01-07T12:46:15;8.43;;;4.80;;
9675;SDS011;4876;42.656;23.292;2024-01-07T12:48:40;8.13;;;4.13;;
9675;SDS011;4876;42.656;23.292;2024-01-07T12:51:06;8.75;;;3.97;;
9675;SDS011;4876;42.656;23.292;2024-01-07T12:53:31;9.10;;;4.20;;
9675;SDS011;4876;42.656;23.292;2024-01-07T12:55:57;9.55;;;4.28;;
9675;SDS011;4876;42.656;23.292;2024-01-07T12:58:22;6.50;;;3.13;;
9675;SDS011;4876;42.656;23.292;2024-01-07T13:00:48;7.55;;;4.35;;
9675;SDS011;4876;42.656;23.292;2024-01-07T13:03:13;8.45;;;4.00;;
9675;SDS011;4876;42.656;23.292;2024-01-07T13:05:45;8.70;;;4.57;;
9675;SDS011;4876;42.656;23.292;2024-01-07T13:08:15;9.50;;;4.57;;
9675;SDS011;4876;42.656;23.292;2024-01-07T13:13:09;11.52;;;4.50;;
9675;SDS011;4876;42.656;23.292;2024-01-07T13:15:35;8.45;;;4.85;;
9675;SDS011;4876;42.656;23.292;2024-01-07T13:18:01;9.60;;;5.30;;
9675;SDS011;4876;42.656;23.292;2024-01-07T13:20:26;7.88;;;4.40;;
9675;SDS011;4876;42.656;23.292;2024-01-07T13:22:52;8.55;;;4.93;;
9675;SDS011;4876;42.656;23.292;2024-01-07T13:25:17;8.90;;;5.43;;
9675;SDS011;4876;42.656;23.292;2024-01-07T13:27:43;11.50;;;5.60;;
9675;SDS011;4876;42.656;23.292;2024-01-07T13:30:09;11.82;;;5.18;;
9675;SDS011;4876;42.656;23.292;2024-01-07T13:32:35;8.77;;;4.50;;
9675;SDS011;4876;42.656;23.292;2024-01-07T13:35:05;9.38;;;5.18;;
9675;SDS011;4876;42.656;23.292;2024-01-07T13:37:35;12.52;;;4.78;;
9675;SDS011;4876;42.656;23.292;2024-01-07T13:40:01;7.28;;;4.00;;
9675;SDS011;4876;42.656;23.292;2024-01-07T13:42:28;11.00;;;4.70;;
9675;SDS011;4876;42.656;23.292;2024-01-07T13:44:54;9.13;;;4.22;;
9675;SDS011;4876;42.656;23.292;2024-01-07T13:47:20;7.90;;;3.85;;
9675;SDS011;4876;42.656;23.292;2024-01-07T13:49:46;7.43;;;3.80;;
9675;SDS011;4876;42.656;23.292;2024-01-07T13:52:12;9.77;;;4.22;;
9675;SDS011;4876;42.656;23.292;2024-01-07T13:54:38;10.27;;;4.22;;
9675;SDS011;4876;42.656;23.292;2024-01-07T13:57:04;10.25;;;4.50;;
9675;SDS011;4876;42.656;23.292;2024-01-07T13:59:29;9.70;;;4.53;;
9675;SDS011;4876;42.656;23.292;2024-01-07T14:01:55;9.60;;;3.75;;
9675;SDS011;4876;42.656;23.292;2024-01-07T14:04:23;7.32;;;4.00;;
9675;SDS011;4876;42.656;23.292;2024-01-07T14:06:53;13.38;;;4.50;;
9675;SDS011;4876;42.656;23.292;2024-01-07T14:09:20;11.48;;;4.57;;
9675;SDS011;4876;42.656;23.292;2024-01-07T14:11:45;7.10;;;3.65;;
9675;SDS011;4876;42.656;23.292;2024-01-07T14:14:11;9.80;;;3.90;;
9675;SDS011;4876;42.656;23.292;2024-01-07T14:16:36;6.20;;;3.78;;
9675;SDS011;4876;42.656;23.292;2024-01-07T14:19:02;12.18;;;4.63;;
9675;SDS011;4876;42.656;23.292;2024-01-07T14:21:28;9.48;;;4.90;;
9675;SDS011;4876;42.656;23.292;2024-01-07T14:23:55;6.93;;;3.88;;
9675;SDS011;4876;42.656;23.292;2024-01-07T14:26:20;8.77;;;3.72;;
9675;SDS011;4876;42.656;23.292;2024-01-07T14:28:48;7.72;;;3.88;;
9675;SDS011;4876;42.656;23.292;2024-01-07T14:31:15;7.00;;;3.50;;
9675;SDS011;4876;42.656;23.292;2024-01-07T14:33:40;6.25;;;3.45;;
9675;SDS011;4876;42.656;23.292;2024-01-07T14:36:06;8.55;;;3.50;;
9675;SDS011;4876;42.656;23.292;2024-01-07T14:38:34;6.22;;;3.03;;
9675;SDS011;4876;42.656;23.292;2024-01-07T14:40:59;5.07;;;3.00;;
9675;SDS011;4876;42.656;23.292;2024-01-07T14:43:25;6.85;;;3.20;;
9675;SDS011;4876;42.656;23.292;2024-01-07T14:45:50;5.63;;;3.13;;
9675;SDS011;4876;42.656;23.292;2024-01-07T14:48:16;6.63;;;2.72;;
9675;SDS011;4876;42.656;23.292;2024-01-07T14:50:42;6.15;;;3.42;;
9675;SDS011;4876;42.656;23.292;2024-01-07T14:53:12;16.48;;;6.25;;
9675;SDS011;4876;42.656;23.292;2024-01-07T14:55:38;14.82;;;6.80;;
9675;SDS011;4876;42.656;23.292;2024-01-07T14:58:03;11.77;;;6.47;;